DE30A LEST-LECO
Flight info
| Callsign | DE30A |
|---|---|
| Flight time | 0h 28m |
| Altitude | 4000 |
| Route | DCT ECHO2 DCT ECHO1 DCT |
| Aircraft | C152/L-V/N |
Departure
| Time | 2026-05-08 15:11 |
|---|---|
| Airport | Santiago-Rosalía de Castro Airport (LEST) |
Arrival
| Time | 2026-05-08 15:39 |
|---|---|
| Airport | A Coruña Airport (LECO) |
| Time | Latitude | Longitude | Altitude | Speed | Heading |
|---|---|---|---|---|---|
| 2026-05-08 14:39 | 42.89957 | -8.41943 | 1201 ft | 0 kts | 68° |
| 2026-05-08 15:03 | 42.89959 | -8.41936 | 1201 ft | 3 kts | 67° |
| 2026-05-08 15:04 | 42.89982 | -8.41894 | 1201 ft | 8 kts | 37° |
| 2026-05-08 15:04 | 42.90022 | -8.41877 | 1200 ft | 11 kts | 358° |
| 2026-05-08 15:04 | 42.90109 | -8.41907 | 1200 ft | 15 kts | 344° |
| 2026-05-08 15:04 | 42.90220 | -8.41942 | 1198 ft | 17 kts | 342° |
| 2026-05-08 15:05 | 42.90340 | -8.41982 | 1197 ft | 18 kts | 340° |
| 2026-05-08 15:05 | 42.90498 | -8.42033 | 1196 ft | 17 kts | 346° |
| 2026-05-08 15:05 | 42.90611 | -8.42069 | 1195 ft | 16 kts | 346° |
| 2026-05-08 15:05 | 42.90717 | -8.42110 | 1193 ft | 16 kts | 345° |
| 2026-05-08 15:06 | 42.90789 | -8.42135 | 1192 ft | 16 kts | 346° |
| 2026-05-08 15:06 | 42.90893 | -8.42170 | 1191 ft | 15 kts | 345° |
| 2026-05-08 15:06 | 42.90996 | -8.42202 | 1190 ft | 15 kts | 347° |
| 2026-05-08 15:06 | 42.91095 | -8.42231 | 1189 ft | 12 kts | 357° |
| 2026-05-08 15:07 | 42.91105 | -8.42230 | 1189 ft | 0 kts | 23° |
| 2026-05-08 15:08 | 42.91139 | -8.42190 | 1189 ft | 16 kts | 56° |
| 2026-05-08 15:08 | 42.91156 | -8.42077 | 1188 ft | 7 kts | 24° |
| 2026-05-08 15:08 | 42.91163 | -8.42083 | 1188 ft | 3 kts | 298° |
| 2026-05-08 15:08 | 42.91145 | -8.42059 | 1188 ft | 13 kts | 120° |
| 2026-05-08 15:09 | 42.91138 | -8.41999 | 1188 ft | 2 kts | 21° |
| 2026-05-08 15:09 | 42.91084 | -8.42008 | 1188 ft | 25 kts | 167° |
| 2026-05-08 15:09 | 42.90793 | -8.41905 | 1194 ft | 59 kts | 167° |
| 2026-05-08 15:09 | 42.90405 | -8.41770 | 1369 ft | 56 kts | 170° |
| 2026-05-08 15:10 | 42.90025 | -8.41640 | 1521 ft | 57 kts | 170° |
| 2026-05-08 15:10 | 42.89675 | -8.41434 | 1693 ft | 58 kts | 146° |
| 2026-05-08 15:10 | 42.89519 | -8.40902 | 1785 ft | 64 kts | 92° |
| 2026-05-08 15:10 | 42.89633 | -8.40314 | 1787 ft | 71 kts | 83° |
| 2026-05-08 15:11 | 42.89794 | -8.39617 | 1864 ft | 79 kts | 84° |
| 2026-05-08 15:11 | 42.89930 | -8.38923 | 2018 ft | 75 kts | 82° |
| 2026-05-08 15:11 | 42.90075 | -8.38228 | 2130 ft | 76 kts | 83° |
| 2026-05-08 15:11 | 42.90204 | -8.37537 | 2236 ft | 75 kts | 85° |
| 2026-05-08 15:12 | 42.90306 | -8.36822 | 2311 ft | 81 kts | 92° |
| 2026-05-08 15:12 | 42.90379 | -8.36063 | 2449 ft | 79 kts | 93° |
| 2026-05-08 15:12 | 42.90421 | -8.35315 | 2566 ft | 79 kts | 98° |
| 2026-05-08 15:12 | 42.90495 | -8.34576 | 2696 ft | 82 kts | 91° |
| 2026-05-08 15:13 | 42.90650 | -8.33833 | 2795 ft | 83 kts | 72° |
| 2026-05-08 15:13 | 42.90866 | -8.33133 | 2914 ft | 76 kts | 75° |
| 2026-05-08 15:13 | 42.91039 | -8.32414 | 2989 ft | 84 kts | 77° |
| 2026-05-08 15:13 | 42.91204 | -8.31616 | 3051 ft | 89 kts | 81° |
| 2026-05-08 15:14 | 42.91346 | -8.30769 | 3069 ft | 94 kts | 82° |
| 2026-05-08 15:14 | 42.91479 | -8.29921 | 3133 ft | 90 kts | 86° |
| 2026-05-08 15:14 | 42.91560 | -8.29073 | 3196 ft | 91 kts | 89° |
| 2026-05-08 15:14 | 42.91619 | -8.28203 | 3225 ft | 92 kts | 90° |
| 2026-05-08 15:15 | 42.91658 | -8.27329 | 3192 ft | 95 kts | 92° |
| 2026-05-08 15:15 | 42.91684 | -8.26445 | 3218 ft | 92 kts | 95° |
| 2026-05-08 15:15 | 42.91709 | -8.25550 | 3246 ft | 92 kts | 95° |
| 2026-05-08 15:15 | 42.91724 | -8.24680 | 3249 ft | 95 kts | 94° |
| 2026-05-08 15:16 | 42.91777 | -8.23783 | 3302 ft | 93 kts | 90° |
| 2026-05-08 15:16 | 42.91812 | -8.22925 | 3353 ft | 87 kts | 97° |
| 2026-05-08 15:16 | 42.91831 | -8.22014 | 3249 ft | 96 kts | 90° |
| 2026-05-08 15:16 | 42.91884 | -8.21108 | 3266 ft | 96 kts | 88° |
| 2026-05-08 15:17 | 42.91975 | -8.20260 | 3397 ft | 88 kts | 88° |
| 2026-05-08 15:17 | 42.91989 | -8.19386 | 3443 ft | 93 kts | 95° |
| 2026-05-08 15:17 | 42.92010 | -8.18514 | 3488 ft | 93 kts | 92° |
| 2026-05-08 15:17 | 42.91932 | -8.17611 | 3507 ft | 95 kts | 101° |
| 2026-05-08 15:18 | 42.91887 | -8.16669 | 3312 ft | 110 kts | 104° |
| 2026-05-08 15:18 | 42.91752 | -8.15706 | 3360 ft | 97 kts | 103° |
| 2026-05-08 15:18 | 42.91583 | -8.14827 | 3342 ft | 97 kts | 114° |
| 2026-05-08 15:18 | 42.91418 | -8.13954 | 3357 ft | 95 kts | 101° |
| 2026-05-08 15:19 | 42.91360 | -8.12985 | 2986 ft | 118 kts | 102° |
| 2026-05-08 15:19 | 42.91472 | -8.11998 | 3107 ft | 104 kts | 64° |
| 2026-05-08 15:19 | 42.91966 | -8.11420 | 3289 ft | 88 kts | 16° |
| 2026-05-08 15:19 | 42.92565 | -8.11134 | 3438 ft | 91 kts | 20° |
| 2026-05-08 15:20 | 42.93170 | -8.10850 | 3598 ft | 93 kts | 8° |
| 2026-05-08 15:20 | 42.93916 | -8.10677 | 3452 ft | 112 kts | 4° |
| 2026-05-08 15:20 | 42.94639 | -8.10526 | 3733 ft | 99 kts | 3° |
| 2026-05-08 15:20 | 42.95361 | -8.10369 | 3797 ft | 109 kts | 6° |
| 2026-05-08 15:21 | 42.96089 | -8.10384 | 3972 ft | 103 kts | 360° |
| 2026-05-08 15:21 | 42.96828 | -8.10267 | 3949 ft | 108 kts | 2° |
| 2026-05-08 15:21 | 42.97553 | -8.10164 | 3983 ft | 102 kts | 1° |
| 2026-05-08 15:21 | 42.98224 | -8.10229 | 4051 ft | 90 kts | 338° |
| 2026-05-08 15:22 | 42.98775 | -8.10584 | 4022 ft | 88 kts | 324° |
| 2026-05-08 15:22 | 42.99304 | -8.11042 | 3991 ft | 92 kts | 316° |
| 2026-05-08 15:22 | 42.99802 | -8.11568 | 3981 ft | 92 kts | 310° |
| 2026-05-08 15:22 | 43.00276 | -8.12180 | 3900 ft | 94 kts | 307° |
| 2026-05-08 15:23 | 43.00731 | -8.12777 | 3915 ft | 90 kts | 311° |
| 2026-05-08 15:23 | 43.01239 | -8.13292 | 3887 ft | 92 kts | 317° |
| 2026-05-08 15:23 | 43.01690 | -8.13702 | 3878 ft | 92 kts | 319° |
| 2026-05-08 15:23 | 43.01691 | -8.13703 | 3878 ft | 92 kts | 319° |
| 2026-05-08 15:24 | 43.02021 | -8.13981 | 3860 ft | 93 kts | 320° |
| 2026-05-08 15:24 | 43.02524 | -8.14510 | 3828 ft | 90 kts | 303° |
| 2026-05-08 15:25 | 43.02857 | -8.15210 | 3799 ft | 88 kts | 300° |
| 2026-05-08 15:25 | 43.03342 | -8.15772 | 3782 ft | 93 kts | 319° |
| 2026-05-08 15:25 | 43.03890 | -8.16248 | 3772 ft | 94 kts | 317° |
| 2026-05-08 15:25 | 43.04430 | -8.16747 | 3764 ft | 94 kts | 321° |
| 2026-05-08 15:26 | 43.05009 | -8.17169 | 3740 ft | 95 kts | 323° |
| 2026-05-08 15:26 | 43.05562 | -8.17637 | 3722 ft | 93 kts | 318° |
| 2026-05-08 15:26 | 43.06083 | -8.18163 | 3718 ft | 93 kts | 315° |
| 2026-05-08 15:26 | 43.06569 | -8.18708 | 3715 ft | 92 kts | 315° |
| 2026-05-08 15:27 | 43.07124 | -8.19184 | 3695 ft | 94 kts | 325° |
| 2026-05-08 15:27 | 43.07687 | -8.19626 | 3677 ft | 95 kts | 326° |
| 2026-05-08 15:27 | 43.08325 | -8.19934 | 3658 ft | 96 kts | 336° |
| 2026-05-08 15:27 | 43.08884 | -8.20384 | 3619 ft | 95 kts | 315° |
| 2026-05-08 15:28 | 43.09469 | -8.20809 | 3621 ft | 97 kts | 331° |
| 2026-05-08 15:28 | 43.10081 | -8.21159 | 3646 ft | 93 kts | 329° |
| 2026-05-08 15:28 | 43.10679 | -8.21551 | 3609 ft | 98 kts | 327° |
| 2026-05-08 15:28 | 43.11261 | -8.21995 | 3627 ft | 92 kts | 314° |
| 2026-05-08 15:29 | 43.11688 | -8.22630 | 3618 ft | 90 kts | 303° |
| 2026-05-08 15:29 | 43.12084 | -8.23282 | 3611 ft | 90 kts | 299° |
| 2026-05-08 15:29 | 43.12452 | -8.23955 | 3671 ft | 87 kts | 297° |
| 2026-05-08 15:29 | 43.12810 | -8.24628 | 3678 ft | 87 kts | 297° |
| 2026-05-08 15:30 | 43.13227 | -8.25224 | 3735 ft | 87 kts | 310° |
| 2026-05-08 15:30 | 43.13689 | -8.25790 | 3654 ft | 89 kts | 307° |
| 2026-05-08 15:30 | 43.14130 | -8.26381 | 3682 ft | 86 kts | 307° |
| 2026-05-08 15:30 | 43.14610 | -8.26932 | 3655 ft | 92 kts | 313° |
| 2026-05-08 15:31 | 43.15133 | -8.27446 | 3629 ft | 94 kts | 317° |
| 2026-05-08 15:31 | 43.15696 | -8.28018 | 3495 ft | 103 kts | 316° |
| 2026-05-08 15:31 | 43.16272 | -8.28555 | 3503 ft | 91 kts | 313° |
| 2026-05-08 15:31 | 43.16739 | -8.29161 | 3445 ft | 94 kts | 308° |
| 2026-05-08 15:32 | 43.17265 | -8.29757 | 3314 ft | 100 kts | 318° |
| 2026-05-08 15:32 | 43.17852 | -8.30327 | 3164 ft | 105 kts | 317° |
| 2026-05-08 15:32 | 43.18487 | -8.30817 | 3145 ft | 106 kts | 325° |
| 2026-05-08 15:32 | 43.19138 | -8.31373 | 2960 ft | 108 kts | 311° |
| 2026-05-08 15:33 | 43.19736 | -8.31934 | 2977 ft | 106 kts | 329° |
| 2026-05-08 15:33 | 43.20448 | -8.32239 | 3038 ft | 104 kts | 326° |
| 2026-05-08 15:33 | 43.21147 | -8.32681 | 2922 ft | 119 kts | 324° |
| 2026-05-08 15:33 | 43.21776 | -8.33278 | 3065 ft | 108 kts | 340° |
| 2026-05-08 15:34 | 43.22541 | -8.33486 | 3035 ft | 114 kts | 350° |
| 2026-05-08 15:34 | 43.23341 | -8.33592 | 2901 ft | 120 kts | 351° |
| 2026-05-08 15:34 | 43.24137 | -8.33558 | 2875 ft | 111 kts | 352° |
| 2026-05-08 15:34 | 43.24911 | -8.33574 | 2823 ft | 108 kts | 353° |
| 2026-05-08 15:35 | 43.25640 | -8.33634 | 2812 ft | 105 kts | 345° |
| 2026-05-08 15:35 | 43.26391 | -8.33810 | 2618 ft | 113 kts | 345° |
| 2026-05-08 15:35 | 43.27182 | -8.33968 | 2295 ft | 115 kts | 357° |
| 2026-05-08 15:35 | 43.27919 | -8.33730 | 2170 ft | 102 kts | 22° |
| 2026-05-08 15:36 | 43.28522 | -8.33412 | 2049 ft | 91 kts | 20° |
| 2026-05-08 15:36 | 43.28911 | -8.33188 | 1954 ft | 87 kts | 21° |
| 2026-05-08 15:36 | 43.29631 | -8.32884 | 1867 ft | 75 kts | 16° |
| 2026-05-08 15:36 | 43.30115 | -8.32619 | 1742 ft | 77 kts | 21° |
| 2026-05-08 15:37 | 43.30616 | -8.32376 | 1666 ft | 77 kts | 357° |
| 2026-05-08 15:37 | 43.31005 | -8.32801 | 1596 ft | 74 kts | 306° |
| 2026-05-08 15:37 | 43.31291 | -8.33354 | 1556 ft | 71 kts | 304° |
| 2026-05-08 15:37 | 43.31559 | -8.33937 | 1509 ft | 73 kts | 300° |
| 2026-05-08 15:38 | 43.31781 | -8.34562 | 1505 ft | 72 kts | 292° |
| 2026-05-08 15:38 | 43.31963 | -8.35200 | 1483 ft | 73 kts | 279° |
| 2026-05-08 15:38 | 43.31992 | -8.35866 | 1394 ft | 65 kts | 259° |
| 2026-05-08 15:38 | 43.31763 | -8.36426 | 1089 ft | 71 kts | 218° |
| 2026-05-08 15:39 | 43.31356 | -8.36789 | 711 ft | 69 kts | 207° |
| 2026-05-08 15:39 | 43.30968 | -8.37102 | 412 ft | 62 kts | 206° |
| 2026-05-08 15:39 | 43.30657 | -8.37348 | 337 ft | 39 kts | 205° |